Time;durP1;ratioP1;P1;durP2;ratioP2;P2;SDS_P1;SDS_P2;PMS_P1;PMS_P2;Temp;Humidity;BMP_temperature;BMP_pressure;BME280_temperature;BME280_humidity;BME280_pressure;Samples;Min_cycle;Max_cycle;Signal;HPM_P1;HPM_P2
2022/08/03 00:00:45;;;;;;;0.73;0.52;;;;;;;;;;5075745;28;20473;-87
2022/08/03 00:03:10;;;;;;;0.90;0.60;;;;;;;;;;5078355;28;20054;-88
2022/08/03 00:05:41;;;;;;;1.38;0.90;;;;;;;;;;5054401;28;20346;-84
2022/08/03 00:08:06;;;;;;;1.23;1.00;;;;;;;;;;5063098;28;20070;-88
2022/08/03 00:10:32;;;;;;;1.08;0.98;;;;;;;;;;5054067;28;20060;-88
2022/08/03 00:12:57;;;;;;;1.38;1.02;;;;;;;;;;5067432;28;20070;-87
2022/08/03 00:15:23;;;;;;;0.93;0.82;;;;;;;;;;5069939;28;20035;-86
2022/08/03 00:17:51;;;;;;;1.15;1.05;;;;;;;;;;5063752;28;20036;-84
2022/08/03 00:20:19;;;;;;;4.70;1.23;;;;;;;;;;5063556;28;20124;-86
2022/08/03 00:22:44;;;;;;;2.45;1.02;;;;;;;;;;5078728;28;20035;-87
2022/08/03 00:25:10;;;;;;;1.58;1.13;;;;;;;;;;5077778;28;20032;-87
2022/08/03 00:27:36;;;;;;;1.92;1.02;;;;;;;;;;5061707;28;20437;-84
2022/08/03 00:30:01;;;;;;;1.40;0.80;;;;;;;;;;5067684;28;20021;-85
2022/08/03 00:32:27;;;;;;;1.17;1.00;;;;;;;;;;5050291;28;20119;-86
2022/08/03 00:34:55;;;;;;;2.08;0.82;;;;;;;;;;5057761;28;20028;-85
2022/08/03 00:37:25;;;;;;;1.55;0.50;;;;;;;;;;5063032;28;20020;-86
2022/08/03 00:40:10;;;;;;;1.23;0.52;;;;;;;;;;5055261;28;20036;-87
2022/08/03 00:42:44;;;;;;;0.45;0.40;;;;;;;;;;5059034;28;20131;-86
2022/08/03 00:45:12;;;;;;;0.65;0.65;;;;;;;;;;5070979;28;20116;-85
2022/08/03 00:47:38;;;;;;;0.45;0.45;;;;;;;;;;5054176;28;20095;-85
2022/08/03 00:50:03;;;;;;;0.95;0.57;;;;;;;;;;5062520;28;20016;-87
2022/08/03 00:52:29;;;;;;;0.50;0.43;;;;;;;;;;5055594;28;20444;-86
2022/08/03 00:54:56;;;;;;;1.05;0.80;;;;;;;;;;5084614;28;20059;-85
2022/08/03 00:57:24;;;;;;;1.33;0.68;;;;;;;;;;5058061;28;20024;-85
2022/08/03 00:59:52;;;;;;;1.40;0.85;;;;;;;;;;5056659;28;20024;-87
2022/08/03 01:02:19;;;;;;;0.55;0.40;;;;;;;;;;5054815;28;20479;-83
2022/08/03 01:04:44;;;;;;;4.13;0.80;;;;;;;;;;5065671;28;20054;-84
2022/08/03 01:07:23;;;;;;;0.45;0.35;;;;;;;;;;5067187;28;20624;-87
2022/08/03 01:09:57;;;;;;;1.65;1.08;;;;;;;;;;5067987;28;20406;-87
2022/08/03 01:12:25;;;;;;;0.80;0.30;;;;;;;;;;5084201;28;20039;-88
2022/08/03 01:14:59;;;;;;;0.35;0.30;;;;;;;;;;5079661;28;20024;-84
2022/08/03 01:17:28;;;;;;;1.00;0.60;;;;;;;;;;5054142;28;20025;-87
2022/08/03 01:19:59;;;;;;;0.77;0.73;;;;;;;;;;5059906;28;20025;-87
2022/08/03 01:22:33;;;;;;;0.75;0.63;;;;;;;;;;5061684;28;20016;-86
2022/08/03 01:24:59;;;;;;;0.68;0.57;;;;;;;;;;5072950;28;20346;-86
2022/08/03 01:27:33;;;;;;;0.50;0.50;;;;;;;;;;5079376;28;20028;-86
2022/08/03 01:30:01;;;;;;;0.40;0.40;;;;;;;;;;5053119;28;20418;-86
2022/08/03 01:32:45;;;;;;;1.08;0.52;;;;;;;;;;5061930;28;20042;-87
2022/08/03 01:35:25;;;;;;;0.73;0.55;;;;;;;;;;5056585;28;20038;-88
2022/08/03 01:38:00;;;;;;;1.27;0.90;;;;;;;;;;5061909;28;20020;-85
2022/08/03 01:40:29;;;;;;;0.93;0.70;;;;;;;;;;5057901;28;20047;-86
2022/08/03 01:42:56;;;;;;;0.68;0.68;;;;;;;;;;5063445;28;20591;-84
2022/08/03 01:45:23;;;;;;;1.90;1.25;;;;;;;;;;5067197;28;20107;-87
2022/08/03 01:47:49;;;;;;;0.68;0.50;;;;;;;;;;5057769;28;20019;-85
2022/08/03 01:50:15;;;;;;;0.98;0.80;;;;;;;;;;5078015;28;20027;-85
2022/08/03 01:52:43;;;;;;;1.00;0.75;;;;;;;;;;5054512;28;20032;-86
2022/08/03 01:55:15;;;;;;;0.40;0.40;;;;;;;;;;5071883;28;20024;-83
2022/08/03 01:57:44;;;;;;;3.38;0.88;;;;;;;;;;5079123;28;20103;-86
2022/08/03 02:00:13;;;;;;;0.47;0.47;;;;;;;;;;5066853;28;20051;-86
2022/08/03 02:02:39;;;;;;;1.48;0.65;;;;;;;;;;5055773;28;20049;-84
2022/08/03 02:05:06;;;;;;;0.85;0.45;;;;;;;;;;5060207;28;20094;-82
2022/08/03 02:07:33;;;;;;;0.60;0.50;;;;;;;;;;5078689;28;20051;-83
2022/08/03 02:10:00;;;;;;;0.45;0.45;;;;;;;;;;5081315;28;20033;-84
2022/08/03 02:12:27;;;;;;;1.27;0.90;;;;;;;;;;5067806;28;20032;-83
2022/08/03 02:14:56;;;;;;;0.38;0.38;;;;;;;;;;5055356;28;20505;-87
2022/08/03 02:17:22;;;;;;;3.80;0.50;;;;;;;;;;5064277;28;20028;-85
2022/08/03 02:19:49;;;;;;;0.75;0.45;;;;;;;;;;5059889;28;20103;-85
2022/08/03 02:22:16;;;;;;;2.35;0.63;;;;;;;;;;5068778;28;20024;-85
2022/08/03 02:24:44;;;;;;;1.23;0.75;;;;;;;;;;5080933;28;20025;-85
2022/08/03 02:27:19;;;;;;;0.60;0.60;;;;;;;;;;5064782;28;20115;-88
2022/08/03 02:29:54;;;;;;;0.60;0.60;;;;;;;;;;5066219;28;20440;-87
2022/08/03 02:32:24;;;;;;;1.25;0.63;;;;;;;;;;5061617;28;20027;-86
2022/08/03 02:34:50;;;;;;;0.50;0.45;;;;;;;;;;5050571;28;20109;-87
2022/08/03 02:37:20;;;;;;;0.65;0.65;;;;;;;;;;5067172;28;20028;-86
2022/08/03 02:39:47;;;;;;;1.00;0.82;;;;;;;;;;5058771;28;20493;-87
2022/08/03 02:42:14;;;;;;;0.77;0.63;;;;;;;;;;5060314;28;20029;-87
2022/08/03 02:44:40;;;;;;;0.85;0.45;;;;;;;;;;5074712;28;20029;-86
2022/08/03 02:47:08;;;;;;;1.90;0.85;;;;;;;;;;5079278;28;20028;-86
2022/08/03 02:49:34;;;;;;;1.33;0.68;;;;;;;;;;5055269;28;20399;-88
2022/08/03 02:52:03;;;;;;;0.52;0.45;;;;;;;;;;5082041;28;20020;-86
2022/08/03 02:54:29;;;;;;;2.10;0.90;;;;;;;;;;5065698;28;20081;-84
2022/08/03 02:56:56;;;;;;;0.65;0.60;;;;;;;;;;5070287;28;20103;-87
2022/08/03 02:59:22;;;;;;;1.92;1.40;;;;;;;;;;5060935;28;20029;-86
2022/08/03 03:01:47;;;;;;;0.80;0.55;;;;;;;;;;5071236;28;20470;-85
2022/08/03 03:04:14;;;;;;;1.02;0.98;;;;;;;;;;5061882;28;20033;-87
2022/08/03 03:06:40;;;;;;;1.85;0.65;;;;;;;;;;5066587;28;20086;-86
2022/08/03 03:09:05;;;;;;;1.00;0.63;;;;;;;;;;5083951;28;20028;-86
2022/08/03 03:11:31;;;;;;;0.95;0.50;;;;;;;;;;5090711;28;20025;-85
2022/08/03 03:13:57;;;;;;;0.70;0.52;;;;;;;;;;5078999;28;20032;-85
2022/08/03 03:16:25;;;;;;;0.45;0.45;;;;;;;;;;5057690;28;20029;-85
2022/08/03 03:18:52;;;;;;;0.70;0.68;;;;;;;;;;5063138;28;20035;-84
2022/08/03 03:21:20;;;;;;;2.28;0.98;;;;;;;;;;5075360;28;20446;-86
2022/08/03 03:23:46;;;;;;;2.35;0.82;;;;;;;;;;5058141;28;20544;-84
2022/08/03 03:26:13;;;;;;;0.80;0.50;;;;;;;;;;5058316;28;20128;-85
2022/08/03 03:28:41;;;;;;;1.05;0.95;;;;;;;;;;5083855;28;20453;-86
2022/08/03 03:31:11;;;;;;;0.50;0.50;;;;;;;;;;5064475;28;20043;-87
2022/08/03 03:33:36;;;;;;;0.55;0.55;;;;;;;;;;5055041;28;20166;-87
2022/08/03 03:36:05;;;;;;;1.00;0.68;;;;;;;;;;5062588;28;20087;-87
2022/08/03 03:38:31;;;;;;;1.02;0.52;;;;;;;;;;5060137;28;20039;-85
2022/08/03 03:40:57;;;;;;;0.88;0.85;;;;;;;;;;5069876;28;20032;-86
2022/08/03 03:43:25;;;;;;;0.73;0.50;;;;;;;;;;5066244;28;20025;-87
2022/08/03 03:45:52;;;;;;;0.98;0.55;;;;;;;;;;5063273;28;20025;-86
2022/08/03 03:48:18;;;;;;;0.70;0.40;;;;;;;;;;5063992;28;20032;-87
2022/08/03 03:50:44;;;;;;;0.60;0.57;;;;;;;;;;5059901;28;20461;-87
2022/08/03 03:53:10;;;;;;;0.80;0.70;;;;;;;;;;5061423;28;20035;-84
2022/08/03 03:55:38;;;;;;;1.45;0.40;;;;;;;;;;5064619;28;20460;-88
2022/08/03 03:58:04;;;;;;;0.30;0.30;;;;;;;;;;5063190;28;20042;-86
2022/08/03 04:00:30;;;;;;;0.98;0.73;;;;;;;;;;5061198;28;20028;-85
2022/08/03 04:02:56;;;;;;;1.38;0.77;;;;;;;;;;5054282;28;20360;-87
2022/08/03 04:11:19;;;;;;;2.15;1.00;;;;;;;;;;5084668;28;20373;-86
2022/08/03 04:13:54;;;;;;;1.10;1.00;;;;;;;;;;5085224;28;20027;-84
2022/08/03 04:16:25;;;;;;;0.57;0.52;;;;;;;;;;5068253;28;20094;-85
2022/08/03 04:18:53;;;;;;;0.88;0.60;;;;;;;;;;5055355;28;20178;-83
2022/08/03 04:21:19;;;;;;;0.70;0.70;;;;;;;;;;5081489;28;20028;-85
2022/08/03 04:23:47;;;;;;;0.68;0.65;;;;;;;;;;5074489;28;20031;-85
2022/08/03 04:26:14;;;;;;;8.40;1.65;;;;;;;;;;5068718;28;20123;-86
2022/08/03 04:28:43;;;;;;;1.45;0.57;;;;;;;;;;5064439;28;20422;-85
2022/08/03 04:31:08;;;;;;;1.27;0.93;;;;;;;;;;5089440;28;20128;-84
2022/08/03 04:33:36;;;;;;;1.00;0.90;;;;;;;;;;5068837;28;20485;-86
2022/08/03 04:36:06;;;;;;;1.98;0.80;;;;;;;;;;5083336;28;20039;-84
2022/08/03 04:38:36;;;;;;;0.98;0.82;;;;;;;;;;5061336;28;20028;-86
2022/08/03 04:41:02;;;;;;;1.15;0.68;;;;;;;;;;5068736;28;20024;-87
2022/08/03 04:43:30;;;;;;;0.55;0.55;;;;;;;;;;5068288;28;20028;-86
2022/08/03 04:45:57;;;;;;;3.08;0.90;;;;;;;;;;5060991;28;20152;-86
2022/08/03 04:48:23;;;;;;;2.85;1.75;;;;;;;;;;5062732;28;20032;-87
2022/08/03 04:50:49;;;;;;;0.63;0.60;;;;;;;;;;5057708;28;20020;-85
2022/08/03 04:53:15;;;;;;;0.88;0.52;;;;;;;;;;5068220;28;20039;-87
2022/08/03 04:55:41;;;;;;;1.27;0.63;;;;;;;;;;5058667;28;20024;-84
2022/08/03 04:58:06;;;;;;;0.82;0.82;;;;;;;;;;5063275;28;20025;-87
2022/08/03 05:00:31;;;;;;;1.35;0.80;;;;;;;;;;5055362;28;20079;-88
2022/08/03 05:02:57;;;;;;;1.27;0.70;;;;;;;;;;5069189;28;20093;-87
2022/08/03 05:05:25;;;;;;;1.67;1.13;;;;;;;;;;5068244;28;20056;-87
2022/08/03 05:07:50;;;;;;;0.75;0.57;;;;;;;;;;5060917;28;20084;-88
2022/08/03 05:10:16;;;;;;;0.73;0.63;;;;;;;;;;5066689;28;20016;-87
2022/08/03 05:12:42;;;;;;;1.15;0.88;;;;;;;;;;5065050;28;20298;-88
2022/08/03 05:15:08;;;;;;;1.60;1.20;;;;;;;;;;5059107;28;20040;-86
2022/08/03 05:17:33;;;;;;;1.05;0.55;;;;;;;;;;5072370;28;20070;-89
2022/08/03 05:19:59;;;;;;;1.20;0.65;;;;;;;;;;5062187;28;20024;-86
2022/08/03 05:22:27;;;;;;;1.50;1.38;;;;;;;;;;5072818;28;20032;-88
2022/08/03 05:24:55;;;;;;;2.00;1.27;;;;;;;;;;5063955;28;20043;-85
2022/08/03 05:27:23;;;;;;;1.52;0.80;;;;;;;;;;5050962;28;20032;-86
2022/08/03 05:29:49;;;;;;;1.75;1.00;;;;;;;;;;5053466;28;20092;-85
2022/08/03 05:32:15;;;;;;;1.08;0.75;;;;;;;;;;5063279;28;20437;-86
2022/08/03 05:34:41;;;;;;;1.15;0.68;;;;;;;;;;5059737;28;20033;-85
2022/08/03 05:37:07;;;;;;;0.77;0.50;;;;;;;;;;5044337;28;20683;-84
2022/08/03 05:39:35;;;;;;;0.80;0.70;;;;;;;;;;5083938;28;20032;-88
2022/08/03 05:42:01;;;;;;;0.82;0.52;;;;;;;;;;5058769;28;20157;-87
2022/08/03 05:44:27;;;;;;;3.00;0.85;;;;;;;;;;5056707;28;20126;-85
2022/08/03 05:46:55;;;;;;;1.90;1.45;;;;;;;;;;5060771;28;20032;-91
2022/08/03 05:49:25;;;;;;;1.20;0.68;;;;;;;;;;5059267;28;20024;-87
2022/08/03 05:51:51;;;;;;;0.40;0.30;;;;;;;;;;5070392;28;20434;-85
2022/08/03 05:54:16;;;;;;;2.13;0.60;;;;;;;;;;5076957;28;20023;-87
2022/08/03 05:56:42;;;;;;;1.27;0.77;;;;;;;;;;5058687;28;20025;-87
2022/08/03 05:59:08;;;;;;;0.70;0.70;;;;;;;;;;5058732;28;20052;-85
2022/08/03 06:01:36;;;;;;;1.08;0.57;;;;;;;;;;5072396;28;20028;-83
2022/08/03 06:04:01;;;;;;;0.75;0.73;;;;;;;;;;5063935;28;20039;-87
2022/08/03 06:06:29;;;;;;;1.52;0.63;;;;;;;;;;5063274;28;20021;-88
2022/08/03 06:09:07;;;;;;;0.90;0.82;;;;;;;;;;5070034;28;20048;-87
2022/08/03 06:11:32;;;;;;;1.23;0.70;;;;;;;;;;5078500;28;20007;-81
2022/08/03 06:14:01;;;;;;;1.95;1.10;;;;;;;;;;5083542;28;20055;-91
2022/08/03 06:16:27;;;;;;;1.45;1.20;;;;;;;;;;5080458;28;20058;-84
2022/08/03 06:18:52;;;;;;;1.20;1.10;;;;;;;;;;5074470;28;20024;-86
2022/08/03 06:21:18;;;;;;;2.03;1.10;;;;;;;;;;5079166;28;20032;-90
2022/08/03 06:23:44;;;;;;;1.08;0.65;;;;;;;;;;5079151;28;20051;-88
2022/08/03 06:26:12;;;;;;;0.28;0.28;;;;;;;;;;5084322;28;20468;-87
2022/08/03 06:28:38;;;;;;;2.08;1.40;;;;;;;;;;5069653;28;20381;-86
2022/08/03 06:31:03;;;;;;;4.13;1.40;;;;;;;;;;5078142;28;20450;-93
2022/08/03 06:33:29;;;;;;;1.27;0.75;;;;;;;;;;5089357;28;20035;-94
2022/08/03 06:35:54;;;;;;;2.08;1.00;;;;;;;;;;5065138;28;20033;-92
2022/08/03 06:38:20;;;;;;;0.88;0.70;;;;;;;;;;5058559;28;20437;-91
2022/08/03 06:40:48;;;;;;;0.60;0.47;;;;;;;;;;5065727;28;20035;-90
2022/08/03 06:43:14;;;;;;;1.08;0.75;;;;;;;;;;5062746;28;20035;-89
2022/08/03 06:45:42;;;;;;;0.70;0.63;;;;;;;;;;5074361;28;20026;-92
2022/08/03 06:48:09;;;;;;;0.82;0.70;;;;;;;;;;5060340;28;20032;-86
2022/08/03 06:50:36;;;;;;;1.80;0.70;;;;;;;;;;5077093;28;20083;-88
2022/08/03 06:53:03;;;;;;;4.45;0.73;;;;;;;;;;5079275;28;20084;-90
2022/08/03 06:55:29;;;;;;;0.90;0.90;;;;;;;;;;5085705;28;20028;-89
2022/08/03 06:57:54;;;;;;;1.25;0.82;;;;;;;;;;5059493;28;20630;-91
2022/08/03 07:00:20;;;;;;;0.50;0.50;;;;;;;;;;5059291;28;20037;-84
2022/08/03 07:02:46;;;;;;;0.63;0.57;;;;;;;;;;5060770;28;20710;-90
2022/08/03 07:05:12;;;;;;;0.95;0.80;;;;;;;;;;5064445;28;20044;-86
2022/08/03 07:07:40;;;;;;;0.35;0.35;;;;;;;;;;5067082;28;20028;-87
2022/08/03 07:10:07;;;;;;;0.65;0.65;;;;;;;;;;5075535;28;20043;-84
2022/08/03 07:12:33;;;;;;;1.17;0.93;;;;;;;;;;5072003;28;20035;-95
2022/08/03 07:15:00;;;;;;;0.98;0.68;;;;;;;;;;5073082;28;20028;-95
2022/08/03 07:17:26;;;;;;;0.93;0.68;;;;;;;;;;5075859;28;20020;-94
2022/08/03 07:19:51;;;;;;;2.03;0.90;;;;;;;;;;5073106;28;20390;-91
2022/08/03 07:22:16;;;;;;;1.10;1.00;;;;;;;;;;5057966;28;20021;-93
2022/08/03 07:24:42;;;;;;;0.80;0.68;;;;;;;;;;5082481;28;20409;-95
2022/08/03 07:27:08;;;;;;;1.27;0.90;;;;;;;;;;5059710;28;20017;-95
2022/08/03 07:29:34;;;;;;;0.65;0.65;;;;;;;;;;5059228;28;20024;-90
2022/08/03 07:32:01;;;;;;;0.60;0.60;;;;;;;;;;5062671;28;20077;-91
2022/08/03 07:34:27;;;;;;;0.70;0.70;;;;;;;;;;5083302;28;20051;-94
2022/08/03 07:36:55;;;;;;;1.00;0.85;;;;;;;;;;5082101;28;20073;-94
2022/08/03 07:39:20;;;;;;;1.00;0.77;;;;;;;;;;5063121;28;20021;-93
2022/08/03 07:41:46;;;;;;;0.93;0.60;;;;;;;;;;5062002;28;20038;-88
2022/08/03 07:44:14;;;;;;;0.85;0.60;;;;;;;;;;5078492;28;20024;-92
2022/08/03 07:46:39;;;;;;;0.80;0.80;;;;;;;;;;5072601;28;20031;-93
2022/08/03 07:49:07;;;;;;;4.35;1.95;;;;;;;;;;5058945;28;20455;-86
2022/08/03 07:51:33;;;;;;;0.68;0.68;;;;;;;;;;5075660;28;20062;-93
2022/08/03 07:53:59;;;;;;;0.55;0.50;;;;;;;;;;5075907;28;20028;-91
2022/08/03 07:56:25;;;;;;;0.63;0.63;;;;;;;;;;5057628;28;20028;-90
2022/08/03 07:58:53;;;;;;;0.88;0.63;;;;;;;;;;5075685;28;20028;-86
2022/08/03 08:01:18;;;;;;;0.73;0.52;;;;;;;;;;5077214;28;20093;-90
2022/08/03 08:03:48;;;;;;;0.77;0.63;;;;;;;;;;5077953;28;20074;-88
2022/08/03 08:06:14;;;;;;;1.20;0.93;;;;;;;;;;5083507;28;20027;-88
2022/08/03 08:08:42;;;;;;;1.63;1.15;;;;;;;;;;5065873;28;20029;-92
2022/08/03 08:11:07;;;;;;;0.90;0.80;;;;;;;;;;5083773;28;20021;-92
2022/08/03 08:13:33;;;;;;;0.77;0.70;;;;;;;;;;5076666;28;20053;-87
2022/08/03 08:15:58;;;;;;;1.52;0.60;;;;;;;;;;5081394;28;20024;-91
2022/08/03 08:18:28;;;;;;;0.73;0.73;;;;;;;;;;5066500;28;20025;-92
2022/08/03 08:20:54;;;;;;;0.40;0.40;;;;;;;;;;5080508;28;20032;-91
2022/08/03 08:23:22;;;;;;;1.55;1.15;;;;;;;;;;5087145;28;20096;-92
2022/08/03 08:25:48;;;;;;;1.70;0.70;;;;;;;;;;5091898;28;20077;-92
2022/08/03 08:28:33;;;;;;;1.10;1.00;;;;;;;;;;5085606;28;20054;-92
2022/08/03 08:31:00;;;;;;;2.10;1.38;;;;;;;;;;5011956;28;20042;-89
2022/08/03 08:33:25;;;;;;;1.75;1.48;;;;;;;;;;5001186;28;20034;-88
2022/08/03 08:35:52;;;;;;;8.85;1.35;;;;;;;;;;5004513;28;20126;-91
2022/08/03 08:38:20;;;;;;;1.55;1.02;;;;;;;;;;4983350;28;20121;-93
2022/08/03 08:40:46;;;;;;;0.77;0.70;;;;;;;;;;4982881;28;20115;-93
2022/08/03 08:43:12;;;;;;;0.60;0.60;;;;;;;;;;4981785;28;20058;-91
2022/08/03 08:45:40;;;;;;;1.52;0.95;;;;;;;;;;4977695;28;20038;-87
2022/08/03 08:48:06;;;;;;;2.58;0.73;;;;;;;;;;4995594;28;20062;-95
2022/08/03 08:50:34;;;;;;;0.93;0.50;;;;;;;;;;4979453;28;20452;-91
2022/08/03 08:53:02;;;;;;;0.55;0.55;;;;;;;;;;4999020;28;20438;-91
2022/08/03 08:55:28;;;;;;;1.85;1.10;;;;;;;;;;4994756;28;20050;-90
2022/08/03 08:58:02;;;;;;;1.05;0.57;;;;;;;;;;4987084;28;20026;-89
2022/08/03 09:00:32;;;;;;;1.67;0.95;;;;;;;;;;4978289;28;20030;-91
2022/08/03 09:02:59;;;;;;;0.75;0.40;;;;;;;;;;4994601;28;20100;-88
2022/08/03 09:05:31;;;;;;;0.60;0.60;;;;;;;;;;5006355;28;20042;-90
2022/08/03 09:07:57;;;;;;;0.60;0.60;;;;;;;;;;5035660;28;20123;-82
2022/08/03 09:10:22;;;;;;;1.55;0.85;;;;;;;;;;5074356;28;20107;-90
2022/08/03 09:12:49;;;;;;;0.73;0.73;;;;;;;;;;5074614;28;20025;-91
2022/08/03 09:15:30;;;;;;;1.17;0.98;;;;;;;;;;5072442;28;20123;-89
2022/08/03 09:17:59;;;;;;;0.63;0.60;;;;;;;;;;5081564;28;20038;-87
2022/08/03 09:20:27;;;;;;;0.70;0.70;;;;;;;;;;5087050;28;20078;-77
2022/08/03 09:22:54;;;;;;;1.48;0.82;;;;;;;;;;5087767;28;20067;-86
2022/08/03 09:25:31;;;;;;;0.40;0.40;;;;;;;;;;5085957;28;20085;-85
2022/08/03 09:28:14;;;;;;;0.57;0.50;;;;;;;;;;5087194;28;20076;-89
2022/08/03 09:30:44;;;;;;;0.50;0.50;;;;;;;;;;5087525;28;20021;-87
2022/08/03 09:33:16;;;;;;;0.70;0.65;;;;;;;;;;5082229;28;20039;-87
2022/08/03 09:35:42;;;;;;;0.93;0.55;;;;;;;;;;5080834;28;20392;-88
2022/08/03 09:38:15;;;;;;;0.80;0.40;;;;;;;;;;5084539;28;20417;-85
2022/08/03 09:40:41;;;;;;;0.85;0.63;;;;;;;;;;5081265;28;20051;-88
2022/08/03 09:43:09;;;;;;;0.90;0.77;;;;;;;;;;5079785;28;20440;-93
2022/08/03 09:45:35;;;;;;;0.60;0.60;;;;;;;;;;5077835;28;20029;-88
2022/08/03 09:48:19;;;;;;;0.38;0.38;;;;;;;;;;5078645;28;20102;-91
2022/08/03 09:51:06;;;;;;;0.25;0.25;;;;;;;;;;5075554;28;20024;-84
2022/08/03 09:53:41;;;;;;;1.30;1.02;;;;;;;;;;5086707;28;20024;-88
2022/08/03 09:56:07;;;;;;;0.55;0.47;;;;;;;;;;5068928;28;20028;-92
2022/08/03 09:58:32;;;;;;;0.30;0.30;;;;;;;;;;5082598;28;20016;-86
2022/08/03 10:01:06;;;;;;;0.30;0.30;;;;;;;;;;5076856;28;20035;-92
2022/08/03 10:03:34;;;;;;;0.30;0.30;;;;;;;;;;5076097;28;20051;-86
2022/08/03 10:06:19;;;;;;;0.55;0.55;;;;;;;;;;5077733;28;20028;-90
2022/08/03 10:08:45;;;;;;;0.57;0.40;;;;;;;;;;5082298;28;20457;-93
2022/08/03 10:11:13;;;;;;;1.23;0.35;;;;;;;;;;5077994;28;20032;-88
2022/08/03 10:13:38;;;;;;;1.15;0.40;;;;;;;;;;5087780;28;20472;-88
2022/08/03 10:16:05;;;;;;;1.92;0.40;;;;;;;;;;5068492;28;20036;-84
2022/08/03 10:18:31;;;;;;;1.33;0.75;;;;;;;;;;5077663;28;20440;-82
2022/08/03 10:21:03;;;;;;;0.45;0.40;;;;;;;;;;5074009;28;20974;-86
2022/08/03 10:23:33;;;;;;;0.90;0.55;;;;;;;;;;5074004;28;20048;-84
2022/08/03 10:26:03;;;;;;;0.25;0.25;;;;;;;;;;5073819;28;20036;-84
2022/08/03 10:28:34;;;;;;;0.30;0.30;;;;;;;;;;5077963;28;20035;-83
2022/08/03 10:31:00;;;;;;;0.52;0.52;;;;;;;;;;5073665;28;20063;-87
2022/08/03 10:33:31;;;;;;;1.17;0.57;;;;;;;;;;5088147;28;20061;-87
2022/08/03 10:35:58;;;;;;;0.60;0.60;;;;;;;;;;5100245;28;20102;-90
2022/08/03 10:38:28;;;;;;;1.17;0.47;;;;;;;;;;5099565;28;20028;-86
2022/08/03 10:40:55;;;;;;;2.15;0.90;;;;;;;;;;5087608;28;20028;-89
2022/08/03 10:43:24;;;;;;;0.57;0.55;;;;;;;;;;5096787;28;20028;-85
2022/08/03 10:45:49;;;;;;;0.45;0.45;;;;;;;;;;5085025;28;20187;-87
2022/08/03 10:48:16;;;;;;;0.82;0.65;;;;;;;;;;5075720;28;20452;-85
2022/08/03 10:50:44;;;;;;;1.05;0.88;;;;;;;;;;5079640;28;20025;-86
2022/08/03 10:53:09;;;;;;;0.73;0.73;;;;;;;;;;5085780;28;20043;-85
2022/08/03 10:58:37;;;;;;;0.65;0.60;;;;;;;;;;5092314;28;20039;-84
2022/08/03 11:01:07;;;;;;;2.15;0.80;;;;;;;;;;5088187;28;20031;-85
2022/08/03 11:03:34;;;;;;;2.72;0.63;;;;;;;;;;5090443;28;20538;-87
2022/08/03 11:06:17;;;;;;;0.55;0.55;;;;;;;;;;5082656;28;20433;-86
2022/08/03 11:08:46;;;;;;;1.23;0.93;;;;;;;;;;5057918;28;20035;-86
2022/08/03 11:11:17;;;;;;;0.40;0.40;;;;;;;;;;5075699;28;20024;-86
2022/08/03 11:14:01;;;;;;;0.45;0.45;;;;;;;;;;5096706;28;20430;-90
2022/08/03 11:16:30;;;;;;;0.50;0.50;;;;;;;;;;5085701;28;20067;-87
2022/08/03 11:19:00;;;;;;;0.50;0.50;;;;;;;;;;5067354;28;20032;-82
2022/08/03 11:21:47;;;;;;;1.02;0.63;;;;;;;;;;5081918;28;20024;-85
2022/08/03 11:24:40;;;;;;;0.30;0.30;;;;;;;;;;5087589;28;20020;-85
2022/08/03 11:27:17;;;;;;;3.13;0.60;;;;;;;;;;5093777;28;20039;-82
2022/08/03 11:30:07;;;;;;;0.40;0.40;;;;;;;;;;5087418;28;20028;-84
2022/08/03 11:32:50;;;;;;;1.55;1.27;;;;;;;;;;5086431;28;20036;-84
2022/08/03 11:35:56;;;;;;;2.72;0.98;;;;;;;;;;5085059;28;20025;-88
2022/08/03 11:38:23;;;;;;;1.35;1.08;;;;;;;;;;5074710;28;20031;-85
2022/08/03 11:40:51;;;;;;;0.30;0.30;;;;;;;;;;5081375;28;20484;-84
2022/08/03 11:43:36;;;;;;;0.47;0.47;;;;;;;;;;5085247;28;20051;-83
2022/08/03 11:46:20;;;;;;;0.70;0.40;;;;;;;;;;5075590;28;20060;-91
2022/08/03 11:48:47;;;;;;;1.00;0.63;;;;;;;;;;5075908;28;20028;-81
2022/08/03 11:51:21;;;;;;;0.63;0.50;;;;;;;;;;5073151;28;20346;-82
2022/08/03 11:53:54;;;;;;;1.52;0.93;;;;;;;;;;5089669;28;20034;-82
2022/08/03 11:56:20;;;;;;;1.10;0.63;;;;;;;;;;5079226;28;20017;-78
2022/08/03 11:58:52;;;;;;;0.20;0.20;;;;;;;;;;5068919;28;20074;-77
2022/08/03 12:01:22;;;;;;;1.30;0.85;;;;;;;;;;5073247;28;20020;-77
2022/08/03 12:03:48;;;;;;;0.90;0.83;;;;;;;;;;5081754;28;20570;-78
2022/08/03 12:06:19;;;;;;;0.32;0.32;;;;;;;;;;5077066;28;21515;-77
2022/08/03 12:08:48;;;;;;;1.08;0.40;;;;;;;;;;5082638;28;20058;-77
2022/08/03 12:11:14;;;;;;;0.43;0.43;;;;;;;;;;5079178;28;20021;-76
2022/08/03 12:13:46;;;;;;;1.65;0.65;;;;;;;;;;5077428;28;20028;-77
2022/08/03 12:16:22;;;;;;;0.40;0.40;;;;;;;;;;5074298;28;20047;-77
2022/08/03 12:19:16;;;;;;;0.50;0.50;;;;;;;;;;5077498;28;20032;-77
2022/08/03 12:21:50;;;;;;;0.55;0.55;;;;;;;;;;5071334;28;20170;-77
2022/08/03 12:24:16;;;;;;;2.63;0.70;;;;;;;;;;5075436;28;20028;-77
2022/08/03 12:26:46;;;;;;;1.98;0.30;;;;;;;;;;5078678;28;20104;-75
2022/08/03 12:29:24;;;;;;;0.43;0.43;;;;;;;;;;5076575;28;20024;-77
2022/08/03 12:31:50;;;;;;;1.15;0.68;;;;;;;;;;5074140;28;20103;-74
2022/08/03 12:34:15;;;;;;;0.95;0.60;;;;;;;;;;5068322;28;20226;-77
2022/08/03 12:36:58;;;;;;;0.30;0.30;;;;;;;;;;5071133;28;20389;-77
2022/08/03 12:39:26;;;;;;;0.45;0.22;;;;;;;;;;5071882;28;20032;-77
2022/08/03 12:41:53;;;;;;;0.30;0.30;;;;;;;;;;5076589;28;20370;-77
2022/08/03 12:44:28;;;;;;;1.10;0.77;;;;;;;;;;5060666;28;20032;-77
2022/08/03 12:46:56;;;;;;;0.28;0.28;;;;;;;;;;5082141;28;20035;-77
2022/08/03 12:49:24;;;;;;;0.40;0.40;;;;;;;;;;5078957;28;20173;-77
2022/08/03 12:51:49;;;;;;;0.63;0.57;;;;;;;;;;5074034;28;20016;-77
2022/08/03 12:54:20;;;;;;;0.98;0.47;;;;;;;;;;5087805;28;20393;-77
2022/08/03 12:57:04;;;;;;;0.38;0.30;;;;;;;;;;5075246;28;20027;-76
2022/08/03 12:59:41;;;;;;;0.82;0.30;;;;;;;;;;5072832;28;20496;-79
2022/08/03 13:02:20;;;;;;;1.95;1.38;;;;;;;;;;5079551;28;20033;-78
2022/08/03 13:04:47;;;;;;;0.45;0.40;;;;;;;;;;5079369;28;20048;-77
2022/08/03 13:07:14;;;;;;;0.77;0.60;;;;;;;;;;5076067;28;20090;-79
2022/08/03 13:09:44;;;;;;;0.47;0.47;;;;;;;;;;5081585;28;20031;-76
2022/08/03 13:12:14;;;;;;;0.63;0.47;;;;;;;;;;5085414;28;20024;-79
2022/08/03 13:14:43;;;;;;;0.98;0.57;;;;;;;;;;5073702;28;20021;-76
2022/08/03 13:17:11;;;;;;;0.85;0.73;;;;;;;;;;5071420;28;20035;-78
2022/08/03 13:19:38;;;;;;;0.55;0.30;;;;;;;;;;5075893;28;20043;-77
2022/08/03 13:22:18;;;;;;;0.50;0.35;;;;;;;;;;5074260;28;20070;-76
2022/08/03 13:24:45;;;;;;;0.20;0.20;;;;;;;;;;5066677;28;20453;-78
2022/08/03 13:27:11;;;;;;;0.35;0.32;;;;;;;;;;5066826;28;20444;-76
2022/08/03 13:29:36;;;;;;;0.35;0.32;;;;;;;;;;5072535;28;20036;-77
2022/08/03 13:32:05;;;;;;;0.22;0.22;;;;;;;;;;5074206;28;20029;-76
2022/08/03 13:34:33;;;;;;;0.80;0.45;;;;;;;;;;5073202;28;20021;-77
2022/08/03 13:36:58;;;;;;;0.50;0.50;;;;;;;;;;5085708;28;20039;-77
2022/08/03 13:39:26;;;;;;;1.35;0.38;;;;;;;;;;5078282;28;20024;-81
2022/08/03 13:41:53;;;;;;;3.45;0.75;;;;;;;;;;5079937;28;20043;-76
2022/08/03 13:44:19;;;;;;;0.65;0.47;;;;;;;;;;5074155;28;20025;-75
2022/08/03 13:46:45;;;;;;;0.30;0.30;;;;;;;;;;5081598;28;20062;-75
2022/08/03 13:49:10;;;;;;;1.08;0.60;;;;;;;;;;5086362;28;20034;-74
2022/08/03 13:51:36;;;;;;;0.70;0.70;;;;;;;;;;5080577;28;20024;-77
2022/08/03 13:54:02;;;;;;;2.20;0.93;;;;;;;;;;5073084;28;20024;-75
2022/08/03 13:56:28;;;;;;;1.27;0.50;;;;;;;;;;5073952;28;20103;-74
2022/08/03 13:58:54;;;;;;;0.47;0.45;;;;;;;;;;5086647;28;20039;-77
2022/08/03 14:01:20;;;;;;;0.65;0.30;;;;;;;;;;5076867;28;20028;-75
2022/08/03 14:03:47;;;;;;;0.68;0.68;;;;;;;;;;5077651;28;20028;-75
2022/08/03 14:06:13;;;;;;;0.50;0.50;;;;;;;;;;5077760;28;20424;-75
2022/08/03 14:08:41;;;;;;;0.55;0.50;;;;;;;;;;5075713;28;20062;-75
2022/08/03 14:11:06;;;;;;;0.75;0.75;;;;;;;;;;5084097;28;20059;-76
2022/08/03 14:13:31;;;;;;;0.38;0.28;;;;;;;;;;5077355;28;20066;-76
2022/08/03 14:15:57;;;;;;;0.63;0.50;;;;;;;;;;5080894;28;20024;-76
2022/08/03 14:18:23;;;;;;;0.20;0.20;;;;;;;;;;5078811;28;20226;-75
2022/08/03 14:20:48;;;;;;;0.50;0.43;;;;;;;;;;5075324;28;20029;-75
2022/08/03 14:23:16;;;;;;;9.85;0.95;;;;;;;;;;5079557;28;20047;-77
2022/08/03 14:25:42;;;;;;;0.40;0.40;;;;;;;;;;5079014;28;20057;-76
2022/08/03 14:28:07;;;;;;;0.50;0.38;;;;;;;;;;5079231;28;20032;-75
2022/08/03 14:30:33;;;;;;;0.25;0.25;;;;;;;;;;5096612;28;20027;-76
2022/08/03 14:33:01;;;;;;;0.30;0.30;;;;;;;;;;5095653;28;20024;-76
2022/08/03 14:35:26;;;;;;;0.73;0.50;;;;;;;;;;5093998;28;20449;-76
2022/08/03 14:37:52;;;;;;;9.82;0.77;;;;;;;;;;5076882;28;20081;-76
2022/08/03 14:40:18;;;;;;;0.77;0.35;;;;;;;;;;5077401;28;20044;-76
2022/08/03 14:42:44;;;;;;;2.92;0.95;;;;;;;;;;5096390;28;20020;-76
2022/08/03 14:45:09;;;;;;;0.30;0.30;;;;;;;;;;5086968;28;20082;-80
2022/08/03 14:47:35;;;;;;;0.57;0.55;;;;;;;;;;5075929;28;20107;-76
2022/08/03 14:50:03;;;;;;;0.52;0.30;;;;;;;;;;5083458;28;20101;-75
2022/08/03 14:52:28;;;;;;;0.50;0.43;;;;;;;;;;5088515;28;20036;-76
2022/08/03 14:54:57;;;;;;;0.52;0.40;;;;;;;;;;5088590;28;20168;-76
2022/08/03 14:57:22;;;;;;;1.65;0.47;;;;;;;;;;5076870;28;20107;-76
2022/08/03 14:59:47;;;;;;;0.98;0.40;;;;;;;;;;5089481;28;20107;-76